createdAt,value
2022-10-16T00:01:29.395Z,13.03
2022-10-16T00:03:57.343Z,13.08
2022-10-16T00:06:24.372Z,13.07
2022-10-16T00:08:51.647Z,13.04
2022-10-16T00:11:20.901Z,13.09
2022-10-16T00:13:48.974Z,13.12
2022-10-16T00:16:15.853Z,13.23
2022-10-16T00:18:42.936Z,13.27
2022-10-16T00:21:29.891Z,13.26
2022-10-16T00:24:02.722Z,13.30
2022-10-16T00:26:31.270Z,13.30
2022-10-16T00:28:58.369Z,13.31
2022-10-16T00:31:25.444Z,13.31
2022-10-16T00:33:52.400Z,13.38
2022-10-16T00:36:21.456Z,13.37
2022-10-16T00:38:48.583Z,13.39
2022-10-16T00:41:18.158Z,13.36
2022-10-16T00:43:47.042Z,13.42
2022-10-16T00:46:20.320Z,13.42
2022-10-16T00:48:52.968Z,13.45
2022-10-16T00:51:23.259Z,13.47
2022-10-16T00:53:50.418Z,13.46
2022-10-16T00:56:17.559Z,13.46
2022-10-16T00:58:44.418Z,13.50
2022-10-16T01:01:11.148Z,13.53
2022-10-16T01:03:38.268Z,13.58
2022-10-16T01:06:15.972Z,13.56
2022-10-16T01:08:51.030Z,13.62
2022-10-16T01:11:37.027Z,13.63
2022-10-16T01:14:12.930Z,13.66
2022-10-16T01:17:01.761Z,13.72
2022-10-16T01:19:42.106Z,13.64
2022-10-16T01:22:09.861Z,13.65
2022-10-16T01:24:41.747Z,13.69
2022-10-16T01:27:14.046Z,13.69
2022-10-16T01:29:50.885Z,13.67
2022-10-16T01:32:22.914Z,13.70
2022-10-16T01:34:56.699Z,13.71
2022-10-16T01:37:34.332Z,13.70
2022-10-16T01:40:04.296Z,13.72
2022-10-16T01:42:35.934Z,13.74
2022-10-16T01:45:04.049Z,13.83
2022-10-16T01:47:31.678Z,13.79
2022-10-16T01:49:59.850Z,13.81
2022-10-16T01:52:28.138Z,13.79
2022-10-16T01:54:56.575Z,13.77
2022-10-16T01:57:26.547Z,13.79
2022-10-16T01:59:56.114Z,13.84
2022-10-16T02:02:23.763Z,13.91
2022-10-16T02:04:54.526Z,13.92
2022-10-16T02:07:21.199Z,13.89
2022-10-16T02:09:47.894Z,13.92
2022-10-16T02:12:20.483Z,13.90
2022-10-16T02:14:47.113Z,13.87
2022-10-16T02:17:16.589Z,13.93
2022-10-16T02:19:44.624Z,13.90
2022-10-16T02:22:17.387Z,13.89
2022-10-16T02:25:06.161Z,13.88
2022-10-16T02:27:37.619Z,13.93
2022-10-16T02:30:16.049Z,13.88
2022-10-16T02:32:44.579Z,13.90
2022-10-16T02:35:11.671Z,13.88
2022-10-16T02:37:39.490Z,13.87
2022-10-16T02:40:06.897Z,13.87
2022-10-16T02:42:38.834Z,13.86
2022-10-16T02:45:06.572Z,13.89
2022-10-16T02:47:33.257Z,13.87
2022-10-16T02:50:00.280Z,13.89
2022-10-16T02:52:27.224Z,13.90
2022-10-16T02:54:54.016Z,13.86
2022-10-16T02:57:20.639Z,13.84
2022-10-16T02:59:47.544Z,13.82
2022-10-16T03:02:14.238Z,13.82
2022-10-16T03:04:40.853Z,13.81
2022-10-16T03:07:07.575Z,13.84
2022-10-16T03:09:34.455Z,13.87
2022-10-16T03:12:01.208Z,13.83
2022-10-16T03:16:55.335Z,13.79
2022-10-16T03:19:22.002Z,13.79
2022-10-16T03:21:48.676Z,13.74
2022-10-16T03:24:15.354Z,13.85
2022-10-16T03:26:42.042Z,13.90
2022-10-16T03:29:08.993Z,13.85
2022-10-16T03:31:35.614Z,13.85
2022-10-16T03:34:02.182Z,13.86
2022-10-16T03:36:28.813Z,13.80
2022-10-16T03:38:55.404Z,13.76
2022-10-16T03:41:22.134Z,13.73
2022-10-16T03:43:48.856Z,13.67
2022-10-16T03:46:15.442Z,13.61
2022-10-16T03:48:42.094Z,13.57
2022-10-16T03:51:08.761Z,13.53
2022-10-16T03:53:35.349Z,13.48
2022-10-16T03:56:01.991Z,13.44
2022-10-16T03:58:28.595Z,13.40
2022-10-16T04:00:55.387Z,13.36
2022-10-16T04:03:22.430Z,13.32
2022-10-16T04:05:49.143Z,13.27
2022-10-16T04:08:15.761Z,13.20
2022-10-16T04:10:45.707Z,13.17
2022-10-16T04:13:13.028Z,13.13
2022-10-16T04:15:40.123Z,13.05
2022-10-16T04:18:07.060Z,13.01
2022-10-16T04:20:34.307Z,12.93
2022-10-16T04:23:01.109Z,12.87
2022-10-16T04:25:27.849Z,12.82
2022-10-16T04:27:55.303Z,12.76
2022-10-16T04:30:22.722Z,12.72
2022-10-16T04:32:52.990Z,12.70
2022-10-16T04:35:21.160Z,12.66
2022-10-16T04:37:48.047Z,12.65
2022-10-16T04:40:15.057Z,12.62
2022-10-16T04:42:41.765Z,12.55
2022-10-16T04:45:12.001Z,12.51
2022-10-16T04:47:41.680Z,12.50
2022-10-16T04:50:08.894Z,12.49
2022-10-16T04:55:03.742Z,12.48
2022-10-16T04:57:30.724Z,12.43
2022-10-16T04:59:57.755Z,12.36
2022-10-16T05:02:24.612Z,12.32
2022-10-16T05:04:51.480Z,12.28
2022-10-16T05:07:18.567Z,12.23
2022-10-16T05:09:45.390Z,12.22
2022-10-16T05:12:12.184Z,12.18
2022-10-16T05:14:38.990Z,12.16
2022-10-16T05:17:05.839Z,12.14
2022-10-16T05:19:32.674Z,12.10
2022-10-16T05:21:59.346Z,12.07
2022-10-16T05:24:26.154Z,12.03
2022-10-16T05:26:53.167Z,12.01
2022-10-16T05:29:20.253Z,11.99
2022-10-16T05:31:46.979Z,11.99
2022-10-16T05:34:13.884Z,12.02
2022-10-16T05:36:40.706Z,11.99
2022-10-16T05:39:07.502Z,11.95
2022-10-16T05:41:34.310Z,11.97
2022-10-16T05:44:01.042Z,11.98
2022-10-16T05:46:27.871Z,12.00
2022-10-16T05:48:54.639Z,12.03
2022-10-16T05:51:21.468Z,12.05
2022-10-16T05:53:48.567Z,12.07
2022-10-16T05:56:17.903Z,12.08
2022-10-16T05:58:48.103Z,12.10
2022-10-16T06:01:17.650Z,12.12
2022-10-16T06:03:44.632Z,12.16
2022-10-16T06:06:13.517Z,12.18
2022-10-16T06:08:41.322Z,12.20
2022-10-16T06:11:10.556Z,12.19
2022-10-16T06:13:37.641Z,12.21
2022-10-16T06:16:05.159Z,12.23
2022-10-16T06:18:32.176Z,12.25
2022-10-16T06:20:59.988Z,12.27
2022-10-16T06:23:27.103Z,12.30
2022-10-16T06:25:53.888Z,12.31
2022-10-16T06:28:20.640Z,12.31
2022-10-16T06:30:47.565Z,12.44
2022-10-16T06:33:14.360Z,12.46
2022-10-16T06:35:41.258Z,12.47
2022-10-16T06:38:08.156Z,12.58
2022-10-16T06:40:34.958Z,12.59
2022-10-16T06:43:01.693Z,12.65
2022-10-16T06:45:28.335Z,12.65
2022-10-16T06:47:54.944Z,12.70
2022-10-16T06:50:21.580Z,12.78
2022-10-16T06:52:48.433Z,12.82
2022-10-16T06:55:15.726Z,12.87
2022-10-16T06:57:42.382Z,12.95
2022-10-16T07:00:09.430Z,13.03
2022-10-16T07:02:36.054Z,13.21
2022-10-16T07:05:02.731Z,13.23
2022-10-16T07:07:29.430Z,13.31
2022-10-16T07:09:56.034Z,13.37
2022-10-16T07:12:22.632Z,13.39
2022-10-16T07:14:49.228Z,13.51
2022-10-16T07:17:15.794Z,13.53
2022-10-16T07:19:42.373Z,13.59
2022-10-16T07:22:09.174Z,13.66
2022-10-16T07:24:35.847Z,13.69
2022-10-16T07:27:02.547Z,13.73
2022-10-16T07:29:29.167Z,13.90
2022-10-16T07:31:55.747Z,13.88
2022-10-16T07:34:25.395Z,13.86
2022-10-16T07:36:52.417Z,13.98
2022-10-16T07:39:19.220Z,13.97
2022-10-16T07:41:45.852Z,14.00
2022-10-16T07:44:12.606Z,14.15
2022-10-16T07:46:39.207Z,14.31
2022-10-16T07:49:05.828Z,14.55
2022-10-16T07:51:32.577Z,14.73
2022-10-16T07:53:59.554Z,14.86
2022-10-16T07:56:26.275Z,15.05
2022-10-16T07:58:53.086Z,15.12
2022-10-16T08:01:19.925Z,15.20
2022-10-16T08:03:48.317Z,15.24
2022-10-16T08:06:15.245Z,15.28
2022-10-16T08:08:42.001Z,15.36
2022-10-16T08:11:09.039Z,15.40
2022-10-16T08:13:35.925Z,15.52
2022-10-16T08:16:02.712Z,15.50
2022-10-16T08:18:29.419Z,15.59
2022-10-16T08:20:58.161Z,15.67
2022-10-16T08:23:26.858Z,15.73
2022-10-16T08:25:54.599Z,15.72
2022-10-16T08:28:21.529Z,15.73
2022-10-16T08:30:48.169Z,15.83
2022-10-16T08:33:14.960Z,15.91
2022-10-16T08:35:41.714Z,15.99
2022-10-16T08:38:08.401Z,16.12
2022-10-16T08:40:37.380Z,16.24
2022-10-16T08:43:31.629Z,16.33
2022-10-16T08:46:25.863Z,16.48
2022-10-16T08:48:54.594Z,16.49
2022-10-16T08:51:25.243Z,16.59
2022-10-16T08:53:57.355Z,16.76
2022-10-16T08:56:24.827Z,16.89
2022-10-16T08:58:55.268Z,16.96
2022-10-16T09:01:29.245Z,17.07
2022-10-16T09:04:17.462Z,17.23
2022-10-16T09:06:48.166Z,17.39
2022-10-16T09:09:21.487Z,17.45
2022-10-16T09:11:58.124Z,17.74
2022-10-16T09:14:44.905Z,18.03
2022-10-16T09:17:37.981Z,18.54
2022-10-16T09:20:23.487Z,18.70
2022-10-16T09:22:50.098Z,18.60
2022-10-16T09:25:19.207Z,18.50
2022-10-16T09:27:48.758Z,18.43
2022-10-16T09:30:20.254Z,18.56
2022-10-16T09:32:49.498Z,18.91
2022-10-16T09:35:32.598Z,19.22
2022-10-16T09:37:59.165Z,19.51
2022-10-16T09:40:39.542Z,19.59
2022-10-16T09:43:23.034Z,19.76
2022-10-16T09:45:58.007Z,19.79
2022-10-16T09:48:26.849Z,19.71
2022-10-16T09:51:00.987Z,19.74
2022-10-16T09:53:45.069Z,19.74
2022-10-16T09:56:14.693Z,19.67
2022-10-16T09:58:45.819Z,19.76
2022-10-16T10:01:14.752Z,19.84
2022-10-16T10:03:43.110Z,19.79
2022-10-16T10:06:27.598Z,19.61
2022-10-16T10:09:24.350Z,19.51
2022-10-16T10:11:58.836Z,19.38
2022-10-16T10:14:47.549Z,19.17
2022-10-16T10:17:18.485Z,19.03
2022-10-16T10:19:49.305Z,18.84
2022-10-16T10:22:28.761Z,18.73
2022-10-16T10:25:14.341Z,18.57
2022-10-16T10:27:44.999Z,18.51
2022-10-16T10:30:27.619Z,18.36
2022-10-16T10:33:20.583Z,18.31
2022-10-16T10:36:05.451Z,18.24
2022-10-16T10:38:50.084Z,18.23
2022-10-16T10:41:35.308Z,18.14
2022-10-16T10:44:39.179Z,18.29
2022-10-16T10:47:19.855Z,18.50
2022-10-16T10:50:02.053Z,18.70
2022-10-16T10:52:40.083Z,18.62
2022-10-16T10:55:25.042Z,18.39
2022-10-16T10:58:31.126Z,18.57
2022-10-16T11:01:13.419Z,18.43
2022-10-16T11:04:06.722Z,18.39
2022-10-16T11:06:41.217Z,18.29
2022-10-16T11:09:18.811Z,18.52
2022-10-16T11:11:53.023Z,18.59
2022-10-16T11:14:36.300Z,18.79
2022-10-16T11:17:11.941Z,18.86
2022-10-16T11:19:46.162Z,18.94
2022-10-16T11:22:30.501Z,18.87
2022-10-16T11:25:14.511Z,18.92
2022-10-16T11:27:50.368Z,18.91
2022-10-16T11:30:28.300Z,18.92
2022-10-16T11:33:10.626Z,18.84
2022-10-16T11:35:47.530Z,18.77
2022-10-16T11:38:28.084Z,18.68
2022-10-16T11:40:58.067Z,18.68
2022-10-16T11:43:38.330Z,18.91
2022-10-16T11:46:18.936Z,19.08
2022-10-16T11:48:52.820Z,19.30
2022-10-16T11:51:25.142Z,19.21
2022-10-16T11:54:03.436Z,19.47
2022-10-16T11:56:30.587Z,19.55
2022-10-16T11:59:02.123Z,19.51
2022-10-16T12:01:29.971Z,19.50
2022-10-16T12:04:16.295Z,19.45
2022-10-16T12:06:59.402Z,19.47
2022-10-16T12:09:29.011Z,19.58
2022-10-16T12:11:55.819Z,19.68
2022-10-16T12:14:28.739Z,19.79
2022-10-16T12:17:15.788Z,19.64
2022-10-16T12:19:42.486Z,19.92
2022-10-16T12:22:19.496Z,20.10
2022-10-16T12:24:46.151Z,20.22
2022-10-16T12:27:31.801Z,20.35
2022-10-16T12:30:01.294Z,20.22
2022-10-16T12:32:48.180Z,20.31
2022-10-16T12:35:27.609Z,20.28
2022-10-16T12:37:54.618Z,20.07
2022-10-16T12:40:28.198Z,20.13
2022-10-16T12:42:54.925Z,20.12
2022-10-16T12:45:30.657Z,20.13
2022-10-16T12:47:57.850Z,19.97
2022-10-16T12:50:39.319Z,19.78
2022-10-16T12:53:27.146Z,19.76
2022-10-16T12:56:05.708Z,19.83
2022-10-16T12:58:43.275Z,19.95
2022-10-16T13:01:19.125Z,20.14
2022-10-16T13:04:19.669Z,20.05
2022-10-16T13:07:08.848Z,19.90
2022-10-16T13:09:48.048Z,19.77
2022-10-16T13:12:36.094Z,19.73
2022-10-16T13:15:21.641Z,19.72
2022-10-16T13:18:04.593Z,19.73
2022-10-16T13:21:11.321Z,19.87
2022-10-16T13:24:02.535Z,19.91
2022-10-16T13:26:35.709Z,19.86
2022-10-16T13:29:02.878Z,19.91
2022-10-16T13:31:30.916Z,19.90
2022-10-16T13:34:00.284Z,19.87
2022-10-16T13:36:35.468Z,19.78
2022-10-16T13:39:12.010Z,19.75
2022-10-16T13:41:38.771Z,19.77
2022-10-16T13:44:06.379Z,19.65
2022-10-16T13:46:35.491Z,19.67
2022-10-16T13:49:11.650Z,19.56
2022-10-16T13:51:38.348Z,19.64
2022-10-16T13:54:05.123Z,19.61
2022-10-16T13:56:33.618Z,19.63
2022-10-16T13:59:06.554Z,19.56
2022-10-16T14:01:35.956Z,19.51
2022-10-16T14:04:07.495Z,19.53
2022-10-16T14:06:34.401Z,19.50
2022-10-16T14:09:08.037Z,19.49
2022-10-16T14:11:46.250Z,19.49
2022-10-16T14:14:13.434Z,19.41
2022-10-16T14:16:42.339Z,19.36
2022-10-16T14:19:19.390Z,19.35
2022-10-16T14:21:46.035Z,19.26
2022-10-16T14:24:14.871Z,19.25
2022-10-16T14:26:49.632Z,19.16
2022-10-16T14:29:21.131Z,19.07
2022-10-16T14:32:06.906Z,19.06
2022-10-16T14:34:35.849Z,19.03
2022-10-16T14:39:36.433Z,18.88
2022-10-16T14:42:03.082Z,18.99
2022-10-16T14:44:34.754Z,18.90
2022-10-16T14:47:14.325Z,18.93
2022-10-16T14:49:42.840Z,18.79
2022-10-16T14:52:11.002Z,18.88
2022-10-16T14:54:37.617Z,18.76
2022-10-16T14:57:04.459Z,18.67
2022-10-16T14:59:40.899Z,18.70
2022-10-16T15:02:29.672Z,18.55
2022-10-16T15:04:56.841Z,18.48
2022-10-16T15:07:24.001Z,18.40
2022-10-16T15:09:51.686Z,18.29
2022-10-16T15:12:18.641Z,18.17
2022-10-16T15:14:45.230Z,18.20
2022-10-16T15:17:12.080Z,18.02
2022-10-16T15:19:38.864Z,18.03
2022-10-16T15:22:05.478Z,17.94
2022-10-16T15:24:32.127Z,17.81
2022-10-16T15:26:58.714Z,17.76
2022-10-16T15:29:25.313Z,17.49
2022-10-16T15:31:52.107Z,17.41
2022-10-16T15:34:20.469Z,17.25
2022-10-16T15:36:47.107Z,17.09
2022-10-16T15:39:15.842Z,16.98
2022-10-16T15:41:43.094Z,16.82
2022-10-16T15:44:09.950Z,16.76
2022-10-16T15:46:38.099Z,16.55
2022-10-16T15:49:05.226Z,16.35
2022-10-16T15:51:34.079Z,16.27
2022-10-16T15:54:02.795Z,16.11
2022-10-16T15:56:30.306Z,16.05
2022-10-16T15:59:00.554Z,15.90
2022-10-16T16:01:29.923Z,15.72
2022-10-16T16:03:56.738Z,15.58
2022-10-16T16:06:24.813Z,15.46
2022-10-16T16:08:53.783Z,15.29
2022-10-16T16:11:21.086Z,15.20
2022-10-16T16:13:48.358Z,15.15
2022-10-16T16:16:16.726Z,15.09
2022-10-16T16:18:43.846Z,14.92
2022-10-16T16:21:12.248Z,14.80
2022-10-16T16:23:39.342Z,14.74
2022-10-16T16:26:24.852Z,14.59
2022-10-16T16:28:51.669Z,14.51
2022-10-16T16:31:22.795Z,14.37
2022-10-16T16:33:52.088Z,14.37
2022-10-16T16:36:21.455Z,14.27
2022-10-16T16:38:48.210Z,14.15
2022-10-16T16:41:21.742Z,14.12
2022-10-16T16:43:48.519Z,13.90
2022-10-16T16:46:16.115Z,13.92
2022-10-16T16:48:42.749Z,13.76
2022-10-16T16:51:20.917Z,13.55
2022-10-16T16:53:51.479Z,13.43
2022-10-16T16:56:21.030Z,13.35
2022-10-16T16:58:52.683Z,13.35
2022-10-16T17:01:21.385Z,13.22
2022-10-16T17:03:52.649Z,13.12
2022-10-16T17:06:21.494Z,13.09
2022-10-16T17:08:49.139Z,13.13
2022-10-16T17:11:18.454Z,13.01
2022-10-16T17:13:45.271Z,12.95
2022-10-16T17:16:12.036Z,12.83
2022-10-16T17:18:38.797Z,12.79
2022-10-16T17:21:08.211Z,12.67
2022-10-16T17:23:35.797Z,12.63
2022-10-16T17:26:08.523Z,12.53
2022-10-16T17:28:35.368Z,12.51
2022-10-16T17:33:40.957Z,12.35
2022-10-16T17:36:08.305Z,12.27
2022-10-16T17:38:38.177Z,12.15
2022-10-16T17:41:16.466Z,12.07
2022-10-16T17:43:43.596Z,11.99
2022-10-16T17:46:11.742Z,11.98
2022-10-16T17:48:39.493Z,11.97
2022-10-16T17:51:11.030Z,11.83
2022-10-16T17:53:37.918Z,11.88
2022-10-16T17:56:06.379Z,11.78
2022-10-16T17:58:32.989Z,11.78
2022-10-16T18:00:59.761Z,11.65
2022-10-16T18:03:27.074Z,11.61
2022-10-16T18:05:55.436Z,11.57
2022-10-16T18:08:26.395Z,11.54
2022-10-16T18:10:55.635Z,11.47
2022-10-16T18:13:22.318Z,11.39
2022-10-16T18:15:59.920Z,11.42
2022-10-16T18:18:28.899Z,11.25
2022-10-16T18:21:00.471Z,11.27
2022-10-16T18:23:27.914Z,11.15
2022-10-16T18:25:55.267Z,11.19
2022-10-16T18:28:23.670Z,11.12
2022-10-16T18:30:56.072Z,11.08
2022-10-16T18:33:22.681Z,11.05
2022-10-16T18:35:49.884Z,10.93
2022-10-16T18:38:16.779Z,10.90
2022-10-16T18:40:43.538Z,10.87
2022-10-16T18:43:10.269Z,10.76
2022-10-16T18:45:36.887Z,10.68
2022-10-16T18:48:04.014Z,10.66
2022-10-16T18:50:30.913Z,10.63
2022-10-16T18:52:57.737Z,10.66
2022-10-16T18:55:28.951Z,10.59
2022-10-16T18:57:57.427Z,10.56
2022-10-16T19:00:24.090Z,10.48
2022-10-16T19:02:50.819Z,10.51
2022-10-16T19:05:17.452Z,10.47
2022-10-16T19:07:46.321Z,10.48
2022-10-16T19:10:13.071Z,10.38
2022-10-16T19:12:41.183Z,10.49
2022-10-16T19:15:08.297Z,10.42
2022-10-16T19:17:37.116Z,10.38
2022-10-16T19:20:06.013Z,10.35
2022-10-16T19:22:54.061Z,10.32
2022-10-16T19:25:22.368Z,10.15
2022-10-16T19:27:50.198Z,10.11
2022-10-16T19:30:18.216Z,10.11
2022-10-16T19:32:46.117Z,10.16
2022-10-16T19:35:12.954Z,10.04
2022-10-16T19:37:39.841Z,10.06
2022-10-16T19:40:07.008Z,10.09
2022-10-16T19:42:33.769Z,10.00
2022-10-16T19:45:00.370Z,9.94
2022-10-16T19:47:27.029Z,9.93
2022-10-16T19:49:54.373Z,9.95
2022-10-16T19:52:22.282Z,9.99
2022-10-16T19:54:48.976Z,9.95
2022-10-16T19:57:15.663Z,9.91
2022-10-16T19:59:44.922Z,9.94
2022-10-16T20:02:12.435Z,9.92
2022-10-16T20:04:39.094Z,10.00
2022-10-16T20:07:05.904Z,9.99
2022-10-16T20:09:34.392Z,9.95
2022-10-16T20:12:02.289Z,10.05
2022-10-16T20:14:28.929Z,10.11
2022-10-16T20:16:56.017Z,10.13
2022-10-16T20:19:22.732Z,9.99
2022-10-16T20:21:49.401Z,9.95
2022-10-16T20:24:16.036Z,9.99
2022-10-16T20:26:42.684Z,10.01
2022-10-16T20:29:09.372Z,10.04
2022-10-16T20:31:36.605Z,10.04
2022-10-16T20:34:05.826Z,9.95
2022-10-16T20:36:33.464Z,10.00
2022-10-16T20:39:00.465Z,10.16
2022-10-16T20:41:27.058Z,10.24
2022-10-16T20:43:54.031Z,10.21
2022-10-16T20:46:23.714Z,10.16
2022-10-16T20:48:51.312Z,10.08
2022-10-16T20:51:29.485Z,9.98
2022-10-16T20:54:01.124Z,9.96
2022-10-16T20:56:30.261Z,9.90
2022-10-16T20:58:57.136Z,9.89
2022-10-16T21:01:25.813Z,9.88
2022-10-16T21:03:55.092Z,9.85
2022-10-16T21:06:21.881Z,9.88
2022-10-16T21:08:48.669Z,9.81
2022-10-16T21:11:24.784Z,9.81
2022-10-16T21:13:54.489Z,9.80
2022-10-16T21:16:21.811Z,9.80
2022-10-16T21:18:48.695Z,9.87
2022-10-16T21:21:32.665Z,9.92
2022-10-16T21:24:02.146Z,9.96
2022-10-16T21:26:29.997Z,9.93
2022-10-16T21:29:05.323Z,9.93
2022-10-16T21:31:33.210Z,9.94
2022-10-16T21:34:00.045Z,9.94
2022-10-16T21:36:29.105Z,10.00
2022-10-16T21:38:56.452Z,10.00
2022-10-16T21:41:25.117Z,9.97
2022-10-16T21:43:52.176Z,9.96
2022-10-16T21:46:20.655Z,9.98
2022-10-16T21:48:47.687Z,9.97
2022-10-16T21:51:15.467Z,9.97
2022-10-16T21:53:42.893Z,9.97
2022-10-16T21:56:17.468Z,9.88
2022-10-16T21:58:45.124Z,9.85
2022-10-16T22:01:14.597Z,9.95
2022-10-16T22:03:41.388Z,9.94
2022-10-16T22:06:09.073Z,9.93
2022-10-16T22:08:37.978Z,9.88
2022-10-16T22:11:22.366Z,9.87
2022-10-16T22:13:54.149Z,9.86
2022-10-16T22:16:25.185Z,9.90
2022-10-16T22:18:56.583Z,9.82
2022-10-16T22:21:23.725Z,9.80
2022-10-16T22:23:50.367Z,9.79
2022-10-16T22:26:16.991Z,9.80
2022-10-16T22:28:43.685Z,9.69
2022-10-16T22:31:15.705Z,9.61
2022-10-16T22:33:45.842Z,9.57
2022-10-16T22:36:13.961Z,9.55
2022-10-16T22:38:41.081Z,9.48
2022-10-16T22:41:10.316Z,9.47
2022-10-16T22:43:39.443Z,9.49
2022-10-16T22:46:07.887Z,9.52
2022-10-16T22:48:35.769Z,9.58
2022-10-16T22:51:03.419Z,9.54
2022-10-16T22:53:30.011Z,9.43
2022-10-16T22:55:56.861Z,9.34
2022-10-16T22:58:23.471Z,9.41
2022-10-16T23:00:50.334Z,9.36
2022-10-16T23:03:17.443Z,9.35
2022-10-16T23:05:44.227Z,9.33
2022-10-16T23:08:12.109Z,9.33
2022-10-16T23:10:39.859Z,9.31
2022-10-16T23:13:06.477Z,9.34
2022-10-16T23:15:33.101Z,9.31
2022-10-16T23:17:59.679Z,9.28
2022-10-16T23:20:26.290Z,9.28
2022-10-16T23:22:53.062Z,9.35
2022-10-16T23:25:19.672Z,9.32
2022-10-16T23:27:46.629Z,9.33
2022-10-16T23:30:13.491Z,9.35
2022-10-16T23:32:41.410Z,9.36
2022-10-16T23:35:09.527Z,9.36
2022-10-16T23:37:36.153Z,9.39
2022-10-16T23:40:02.808Z,9.47
2022-10-16T23:42:29.793Z,9.50
2022-10-16T23:44:56.722Z,9.47
2022-10-16T23:47:23.351Z,9.49
2022-10-16T23:49:49.969Z,9.49
2022-10-16T23:52:16.625Z,9.50
2022-10-16T23:54:43.286Z,9.56
2022-10-16T23:57:10.019Z,9.57
2022-10-16T23:59:36.783Z,9.65
